Time;durP1;ratioP1;P1;durP2;ratioP2;P2;SDS_P1;SDS_P2;PMS_P1;PMS_P2;Temp;Humidity;BMP_temperature;BMP_pressure;BME280_temperature;BME280_humidity;BME280_pressure;Samples;Min_cycle;Max_cycle;Signal;HPM_P1;HPM_P2
2021/05/05 00:02:03;;;;;;;8.18;2.50;;;8.50;99.90;;;;;;5008098;28;20451;-70
2021/05/05 00:04:29;;;;;;;4.45;3.35;;;8.40;99.90;;;;;;5014225;28;20211;-70
2021/05/05 00:06:58;;;;;;;8.77;2.20;;;8.30;99.90;;;;;;5014401;28;20717;-72
2021/05/05 00:09:36;;;;;;;7.93;3.17;;;8.20;99.90;;;;;;5012753;28;20200;-69
2021/05/05 00:12:06;;;;;;;6.85;3.40;;;8.20;99.90;;;;;;5014743;28;20609;-71
2021/05/05 00:14:33;;;;;;;10.68;3.67;;;8.10;99.90;;;;;;5015292;28;20207;-69
2021/05/05 00:17:05;;;;;;;10.75;3.60;;;8.00;99.90;;;;;;5008889;28;20381;-71
2021/05/05 00:19:32;;;;;;;7.85;3.38;;;7.90;99.90;;;;;;5010436;28;20207;-68
2021/05/05 00:21:58;;;;;;;3.97;3.22;;;7.80;99.90;;;;;;5014329;28;20237;-68
2021/05/05 00:24:26;;;;;;;7.38;3.10;;;7.80;99.90;;;;;;5014171;28;20343;-68
2021/05/05 00:26:53;;;;;;;5.50;3.28;;;7.70;99.90;;;;;;5010905;28;20666;-67
2021/05/05 00:29:20;;;;;;;4.20;2.88;;;7.50;99.90;;;;;;5014212;28;20202;-68
2021/05/05 00:31:46;;;;;;;10.73;3.95;;;7.50;99.90;;;;;;5015199;28;20213;-68
2021/05/05 00:34:14;;;;;;;7.53;3.42;;;7.40;99.90;;;;;;5011092;28;20894;-68
2021/05/05 00:36:41;;;;;;;14.32;4.47;;;7.40;99.90;;;;;;5013281;28;20222;-69
2021/05/05 00:39:08;;;;;;;7.57;4.10;;;7.40;99.90;;;;;;5014256;28;20208;-69
2021/05/05 00:41:35;;;;;;;6.72;3.20;;;7.40;99.90;;;;;;5011568;28;20593;-68
2021/05/05 00:44:02;;;;;;;9.40;3.10;;;7.40;99.90;;;;;;5012139;28;20201;-69
2021/05/05 00:46:28;;;;;;;5.45;3.88;;;7.30;99.90;;;;;;5011455;28;20229;-68
2021/05/05 00:48:55;;;;;;;6.35;3.40;;;7.40;99.90;;;;;;5013196;28;20204;-70
2021/05/05 00:51:22;;;;;;;5.85;3.42;;;7.30;99.90;;;;;;5014556;28;20750;-68
2021/05/05 00:53:50;;;;;;;18.45;4.03;;;7.40;99.90;;;;;;5011919;28;20206;-68
2021/05/05 00:56:17;;;;;;;9.85;4.40;;;7.40;99.90;;;;;;5014390;28;20319;-69
2021/05/05 00:58:44;;;;;;;3.60;3.03;;;7.30;99.90;;;;;;5013294;28;20291;-70
2021/05/05 01:01:11;;;;;;;12.13;4.53;;;7.40;99.90;;;;;;5008624;28;20195;-69
2021/05/05 01:03:38;;;;;;;4.30;2.53;;;7.40;99.90;;;;;;5008662;28;20296;-68
2021/05/05 01:06:05;;;;;;;7.70;2.55;;;7.40;99.90;;;;;;5014045;28;20272;-69
2021/05/05 01:08:33;;;;;;;4.68;2.75;;;7.50;99.90;;;;;;5013129;28;20309;-69
2021/05/05 01:11:00;;;;;;;6.22;2.20;;;7.50;99.90;;;;;;5012097;28;20229;-69
2021/05/05 01:13:28;;;;;;;2.95;2.30;;;7.60;99.90;;;;;;5012825;28;20218;-69
2021/05/05 01:15:56;;;;;;;8.35;3.40;;;7.60;99.90;;;;;;5013092;28;20712;-69
2021/05/05 01:18:22;;;;;;;4.72;2.58;;;7.50;99.90;;;;;;5013511;28;20203;-69
2021/05/05 01:20:49;;;;;;;4.90;2.95;;;7.50;99.90;;;;;;5013485;28;20248;-68
2021/05/05 01:23:17;;;;;;;4.65;2.30;;;7.50;99.90;;;;;;5010974;28;20307;-69
2021/05/05 01:25:44;;;;;;;9.40;2.97;;;7.40;99.90;;;;;;4998962;28;20239;-69
2021/05/05 01:28:10;;;;;;;6.15;2.88;;;7.40;99.90;;;;;;4998099;28;20566;-69
2021/05/05 01:30:37;;;;;;;3.58;2.42;;;7.40;99.90;;;;;;5007670;28;20234;-69
2021/05/05 01:33:05;;;;;;;10.15;2.25;;;7.30;99.90;;;;;;5000206;28;20237;-70
2021/05/05 01:35:32;;;;;;;5.10;2.00;;;7.30;99.90;;;;;;5006771;28;20228;-70
2021/05/05 01:37:59;;;;;;;6.85;2.80;;;7.20;99.90;;;;;;5008706;28;20260;-70
2021/05/05 01:40:29;;;;;;;6.82;2.20;;;7.20;99.90;;;;;;5012650;28;20289;-69
2021/05/05 01:42:57;;;;;;;7.85;2.03;;;7.20;99.90;;;;;;5013044;28;20222;-70
2021/05/05 01:45:24;;;;;;;3.95;2.10;;;7.20;99.90;;;;;;5009930;28;20223;-70
2021/05/05 01:47:55;;;;;;;6.60;2.00;;;7.20;99.90;;;;;;5009374;28;20327;-69
2021/05/05 01:50:22;;;;;;;8.63;2.47;;;7.20;99.90;;;;;;5005381;28;20234;-70
2021/05/05 01:52:49;;;;;;;4.45;1.60;;;7.20;99.90;;;;;;5013682;28;20282;-69
2021/05/05 01:55:26;;;;;;;4.18;1.70;;;7.20;99.90;;;;;;5010596;28;20234;-69
2021/05/05 01:57:54;;;;;;;6.45;2.40;;;7.20;99.90;;;;;;5006446;28;20202;-69
2021/05/05 02:00:23;;;;;;;8.32;2.03;;;7.20;99.90;;;;;;5004941;28;20288;-68
2021/05/05 02:02:50;;;;;;;6.68;1.70;;;7.20;99.90;;;;;;5012808;28;20201;-70
2021/05/05 02:05:17;;;;;;;4.90;2.00;;;7.20;99.90;;;;;;5012951;28;20324;-70
2021/05/05 02:07:44;;;;;;;8.70;3.88;;;7.20;99.90;;;;;;5011620;28;20664;-70
2021/05/05 02:10:13;;;;;;;3.80;1.65;;;7.20;99.90;;;;;;5012262;28;20711;-70
2021/05/05 02:12:41;;;;;;;6.72;1.92;;;7.30;99.90;;;;;;5012452;28;20283;-70
2021/05/05 02:15:11;;;;;;;3.22;1.30;;;7.30;99.90;;;;;;5012272;28;20268;-70
2021/05/05 02:17:38;;;;;;;8.68;2.30;;;7.30;99.90;;;;;;5012765;28;20290;-69
2021/05/05 02:20:06;;;;;;;8.20;2.55;;;7.40;99.90;;;;;;5008672;28;20195;-69
2021/05/05 02:22:33;;;;;;;4.80;2.05;;;7.40;99.90;;;;;;5012992;28;20244;-69
2021/05/05 02:25:01;;;;;;;5.30;2.30;;;7.30;99.90;;;;;;4996290;28;20296;-70
2021/05/05 02:27:28;;;;;;;2.40;1.90;;;7.30;99.90;;;;;;5003297;28;20297;-70
2021/05/05 02:29:55;;;;;;;7.15;2.80;;;7.30;99.90;;;;;;5006440;28;20208;-69
2021/05/05 02:32:24;;;;;;;3.80;1.52;;;7.30;99.90;;;;;;5009975;28;20213;-70
2021/05/05 02:34:59;;;;;;;3.22;2.30;;;7.30;99.90;;;;;;5010125;28;20209;-70
2021/05/05 02:37:30;;;;;;;2.90;2.63;;;7.30;99.90;;;;;;5035452;23;20269;-82
2021/05/05 02:40:18;;;;;;;12.32;3.60;;;7.30;99.90;;;;;;5024771;28;20220;-81
2021/05/05 02:42:51;;;;;;;4.63;2.25;;;7.30;99.90;;;;;;5031131;28;20224;-80
2021/05/05 02:45:23;;;;;;;6.38;2.20;;;7.30;99.90;;;;;;5017456;28;20208;-80
2021/05/05 02:47:59;;;;;;;9.98;2.97;;;7.20;99.90;;;;;;5025504;28;20232;-81
2021/05/05 02:50:26;;;;;;;9.82;3.00;;;7.30;99.90;;;;;;5015930;28;20319;-81
2021/05/05 02:53:16;;;;;;;3.47;2.03;;;7.20;99.90;;;;;;5014942;28;20225;-81
2021/05/05 02:55:50;;;;;;;7.68;2.75;;;7.30;99.90;;;;;;5004835;28;20239;-82
2021/05/05 02:58:18;;;;;;;4.20;2.45;;;7.40;99.90;;;;;;5011069;28;20233;-81
2021/05/05 03:00:45;;;;;;;11.35;3.20;;;7.30;99.90;;;;;;5017749;28;20289;-81
2021/05/05 03:03:13;;;;;;;10.27;2.85;;;7.20;99.90;;;;;;5017594;28;20297;-81
2021/05/05 03:05:47;;;;;;;3.08;2.70;;;7.30;99.90;;;;;;5016999;28;20623;-81
2021/05/05 03:08:17;;;;;;;8.15;2.22;;;7.30;99.90;;;;;;5016663;28;20228;-82
2021/05/05 03:10:50;;;;;;;9.43;2.20;;;7.30;99.90;;;;;;5017827;28;20234;-82
2021/05/05 03:13:23;;;;;;;12.05;4.40;;;7.30;99.90;;;;;;5016693;28;20267;-82
2021/05/05 03:15:53;;;;;;;9.13;2.65;;;7.30;99.90;;;;;;5011749;28;20746;-82
2021/05/05 03:18:24;;;;;;;6.80;2.22;;;7.30;99.90;;;;;;5013448;28;20225;-83
2021/05/05 03:20:57;;;;;;;8.95;2.42;;;7.30;99.90;;;;;;5017227;28;20574;-82
2021/05/05 03:23:50;;;;;;;8.00;2.42;;;7.10;99.90;;;;;;5006731;28;20209;-81
2021/05/05 03:26:25;;;;;;;6.55;3.33;;;7.30;99.90;;;;;;5010265;28;20227;-82
2021/05/05 03:28:59;;;;;;;10.02;2.78;;;7.30;99.90;;;;;;5015948;28;20713;-82
2021/05/05 03:31:25;;;;;;;6.13;2.53;;;7.20;99.90;;;;;;5016788;28;20927;-82
2021/05/05 03:33:55;;;;;;;7.72;2.42;;;7.40;99.90;;;;;;5007327;28;20197;-82
2021/05/05 03:36:30;;;;;;;9.45;2.00;;;7.40;99.90;;;;;;5016836;28;20217;-81
2021/05/05 03:39:05;;;;;;;7.78;2.38;;;7.40;99.90;;;;;;5017217;28;20312;-81
2021/05/05 03:41:44;;;;;;;7.45;2.40;;;7.40;99.90;;;;;;5033661;28;20189;-81
2021/05/05 03:44:24;;;;;;;5.70;2.20;;;7.40;99.90;;;;;;5035675;28;20235;-80
2021/05/05 03:46:53;;;;;;;6.72;3.15;;;7.30;99.90;;;;;;5034652;28;20189;-81
2021/05/05 03:49:21;;;;;;;3.72;2.33;;;7.40;99.90;;;;;;5029773;28;20190;-81
2021/05/05 03:51:51;;;;;;;3.67;2.03;;;7.40;99.90;;;;;;5034204;28;20495;-81
2021/05/05 03:54:18;;;;;;;4.45;1.40;;;7.20;99.90;;;;;;5022938;28;20197;-82
2021/05/05 03:56:46;;;;;;;6.38;1.88;;;7.40;99.90;;;;;;5018588;28;20573;-82
2021/05/05 03:59:13;;;;;;;21.58;3.42;;;7.40;99.90;;;;;;5017232;28;20207;-81
2021/05/05 04:01:42;;;;;;;5.68;2.65;;;7.40;99.90;;;;;;5012535;28;20665;-83
2021/05/05 04:04:21;;;;;;;6.63;2.60;;;7.40;99.90;;;;;;5016422;28;20204;-81
2021/05/05 04:06:56;;;;;;;7.68;2.90;;;7.30;99.90;;;;;;5010911;28;20220;-81
2021/05/05 04:09:32;;;;;;;8.75;2.45;;;7.30;99.90;;;;;;5014853;28;20262;-82
2021/05/05 04:12:11;;;;;;;6.80;2.45;;;7.40;99.90;;;;;;5011303;28;20220;-82
2021/05/05 04:14:39;;;;;;;5.05;2.20;;;7.30;99.90;;;;;;5017013;28;20221;-82
2021/05/05 04:17:07;;;;;;;4.57;2.15;;;7.30;99.90;;;;;;5022144;28;20316;-82
2021/05/05 04:19:55;;;;;;;8.35;2.40;;;7.30;99.90;;;;;;5019717;28;20206;-82
2021/05/05 04:22:23;;;;;;;10.05;2.95;;;7.30;99.90;;;;;;5001964;28;20726;-82
2021/05/05 04:24:56;;;;;;;3.28;1.90;;;7.30;99.90;;;;;;5013694;28;20225;-83
2021/05/05 04:27:23;;;;;;;11.43;3.05;;;7.30;99.90;;;;;;5021803;28;20229;-82
2021/05/05 04:29:55;;;;;;;7.28;2.30;;;7.30;99.90;;;;;;5019020;28;20213;-81
2021/05/05 04:32:26;;;;;;;4.03;3.63;;;7.30;99.90;;;;;;5017567;28;20206;-82
2021/05/05 04:35:30;;;;;;;6.40;2.08;;;7.30;99.90;;;;;;5012443;28;20259;-82
2021/05/05 04:45:23;;;;;;;8.07;2.72;;;7.40;99.90;;;;;;4944856;28;20303;-81
2021/05/05 04:47:50;;;;;;;8.38;2.50;;;7.40;99.90;;;;;;5007313;23;20242;-74
2021/05/05 04:50:18;;;;;;;5.45;2.22;;;7.50;99.90;;;;;;4974219;28;20254;-73
2021/05/05 04:52:45;;;;;;;9.05;2.47;;;7.40;99.90;;;;;;4975615;28;20198;-73
2021/05/05 04:55:12;;;;;;;8.57;2.85;;;7.50;99.90;;;;;;4973958;28;20228;-73
2021/05/05 04:57:39;;;;;;;9.52;2.88;;;7.70;99.90;;;;;;4968402;28;20206;-74
2021/05/05 05:00:07;;;;;;;9.90;2.15;;;7.80;99.90;;;;;;4968284;28;20261;-73
2021/05/05 05:02:34;;;;;;;9.25;2.58;;;7.90;99.90;;;;;;4962339;28;20212;-73
2021/05/05 05:05:01;;;;;;;8.63;2.40;;;7.80;99.90;;;;;;4959655;28;20207;-74
2021/05/05 05:07:28;;;;;;;7.97;1.88;;;7.70;99.90;;;;;;4961418;28;20206;-74
2021/05/05 05:09:55;;;;;;;5.03;1.95;;;7.70;99.90;;;;;;4964837;28;20322;-75
2021/05/05 05:12:23;;;;;;;12.25;2.42;;;7.70;99.90;;;;;;4964469;28;20211;-74
2021/05/05 05:14:49;;;;;;;8.32;2.33;;;7.60;99.90;;;;;;4972579;28;20189;-74
2021/05/05 05:17:19;;;;;;;3.53;1.90;;;7.60;99.90;;;;;;4983212;28;20202;-72
2021/05/05 05:19:45;;;;;;;5.13;2.25;;;7.60;99.90;;;;;;4986672;28;20411;-72
2021/05/05 05:22:12;;;;;;;7.75;1.80;;;7.60;99.90;;;;;;4984174;28;20188;-70
2021/05/05 05:24:40;;;;;;;7.30;2.10;;;7.70;99.90;;;;;;4973196;28;20450;-71
2021/05/05 05:27:07;;;;;;;9.25;2.80;;;7.70;99.90;;;;;;4979099;28;20247;-71
2021/05/05 05:29:33;;;;;;;8.43;3.15;;;7.60;99.90;;;;;;4978097;28;20220;-71
2021/05/05 05:32:00;;;;;;;8.30;3.10;;;7.70;99.90;;;;;;4980798;28;20223;-70
2021/05/05 05:34:27;;;;;;;7.50;2.40;;;7.60;99.90;;;;;;4975914;28;20206;-72
2021/05/05 05:36:53;;;;;;;11.07;4.35;;;7.70;99.90;;;;;;4984663;28;20278;-72
2021/05/05 05:39:20;;;;;;;10.80;4.60;;;7.70;99.90;;;;;;4976386;28;20193;-72
2021/05/05 05:41:48;;;;;;;7.93;3.08;;;7.70;99.90;;;;;;4982512;28;20299;-73
2021/05/05 05:44:14;;;;;;;10.77;3.70;;;7.60;99.90;;;;;;4985443;28;20223;-73
2021/05/05 05:46:45;;;;;;;6.50;2.10;;;7.60;99.90;;;;;;4986269;28;20234;-73
2021/05/05 05:49:11;;;;;;;7.07;2.72;;;7.70;99.90;;;;;;4981715;28;20220;-73
2021/05/05 05:51:38;;;;;;;9.13;2.95;;;7.80;99.90;;;;;;4981447;28;20252;-69
2021/05/05 05:54:06;;;;;;;10.68;2.72;;;7.80;99.90;;;;;;4978648;28;20398;-71
2021/05/05 05:56:33;;;;;;;7.80;2.60;;;7.90;99.90;;;;;;4981099;28;20267;-70
2021/05/05 05:59:01;;;;;;;9.82;2.83;;;7.90;99.90;;;;;;4984708;28;20217;-70
2021/05/05 06:01:28;;;;;;;11.10;3.90;;;7.80;99.90;;;;;;4981100;28;20217;-69
2021/05/05 06:03:54;;;;;;;15.77;3.40;;;7.90;99.90;;;;;;4970767;28;20201;-69
2021/05/05 06:06:21;;;;;;;6.40;3.20;;;8.00;99.90;;;;;;4973743;28;20310;-72
2021/05/05 06:08:48;;;;;;;11.55;3.45;;;8.00;99.90;;;;;;4979275;28;20191;-72
2021/05/05 06:11:15;;;;;;;10.00;3.65;;;7.90;99.90;;;;;;4979680;28;20397;-84
2021/05/05 06:13:42;;;;;;;9.15;2.78;;;8.00;99.90;;;;;;4974404;28;20255;-72
2021/05/05 06:16:10;;;;;;;10.23;3.63;;;8.00;99.90;;;;;;4970598;28;20322;-72
2021/05/05 06:18:37;;;;;;;8.10;3.25;;;7.90;99.90;;;;;;4976085;28;20187;-73
2021/05/05 06:21:04;;;;;;;9.55;3.50;;;7.90;99.90;;;;;;4986358;28;20191;-71
2021/05/05 06:23:31;;;;;;;8.30;3.63;;;7.90;99.90;;;;;;4984844;28;20220;-70
2021/05/05 06:25:58;;;;;;;11.77;3.55;;;8.00;99.90;;;;;;4985669;28;20295;-73
2021/05/05 06:28:25;;;;;;;5.95;3.22;;;7.90;99.90;;;;;;4979133;28;20209;-72
2021/05/05 06:30:54;;;;;;;8.18;3.70;;;7.90;99.90;;;;;;4976260;28;20450;-70
2021/05/05 06:33:21;;;;;;;7.03;3.60;;;7.90;99.90;;;;;;4980521;28;20193;-72
2021/05/05 06:35:49;;;;;;;11.68;4.25;;;7.90;99.90;;;;;;4977016;28;20282;-73
2021/05/05 06:38:16;;;;;;;7.30;3.78;;;7.80;99.90;;;;;;4983199;28;20214;-72
2021/05/05 06:40:42;;;;;;;10.32;3.85;;;7.70;99.90;;;;;;4974828;28;20212;-72
2021/05/05 06:43:09;;;;;;;10.02;4.53;;;7.70;99.90;;;;;;4986133;28;20287;-70
2021/05/05 06:45:36;;;;;;;6.00;2.53;;;7.70;99.90;;;;;;4984979;28;20260;-71
2021/05/05 06:48:03;;;;;;;10.50;3.20;;;7.80;99.90;;;;;;4983464;28;20228;-70
2021/05/05 06:50:31;;;;;;;8.40;2.55;;;7.90;99.90;;;;;;4984764;28;20281;-71
2021/05/05 06:52:58;;;;;;;7.18;3.20;;;7.90;99.90;;;;;;4980900;28;20210;-71
2021/05/05 06:55:24;;;;;;;11.85;3.00;;;8.00;99.90;;;;;;4982475;28;20242;-71
2021/05/05 06:57:51;;;;;;;10.02;2.45;;;8.10;99.90;;;;;;4983901;28;20200;-71
2021/05/05 07:00:19;;;;;;;11.38;4.88;;;8.20;99.90;;;;;;4988336;28;20190;-71
2021/05/05 07:02:47;;;;;;;14.40;3.10;;;8.20;99.90;;;;;;4982691;28;20386;-71
2021/05/05 07:05:14;;;;;;;16.30;3.08;;;8.20;99.90;;;;;;4982581;28;20454;-66
2021/05/05 07:07:43;;;;;;;9.55;3.20;;;8.20;99.90;;;;;;4979897;28;20193;-72
2021/05/05 07:10:12;;;;;;;6.45;2.47;;;8.20;99.90;;;;;;4979401;28;20203;-72
2021/05/05 07:12:39;;;;;;;12.68;2.80;;;8.20;99.90;;;;;;4981251;28;20214;-69
2021/05/05 07:15:07;;;;;;;13.73;4.78;;;8.30;99.90;;;;;;4978015;28;20209;-71
2021/05/05 07:17:34;;;;;;;8.23;3.00;;;8.40;99.90;;;;;;4982239;28;20189;-71
2021/05/05 07:20:00;;;;;;;13.15;3.35;;;8.60;99.90;;;;;;4975611;28;20196;-72
2021/05/05 07:22:27;;;;;;;12.43;3.47;;;8.90;99.90;;;;;;4979191;28;20531;-71
2021/05/05 07:24:55;;;;;;;9.25;3.60;;;9.10;99.90;;;;;;4985569;28;20280;-72
2021/05/05 07:27:22;;;;;;;13.52;3.65;;;9.20;99.90;;;;;;4977847;28;20193;-71
2021/05/05 07:29:49;;;;;;;11.27;3.08;;;9.30;99.90;;;;;;4983674;28;20253;-72
2021/05/05 07:32:16;;;;;;;12.48;3.45;;;9.40;99.90;;;;;;4978672;28;20281;-71
2021/05/05 07:34:43;;;;;;;9.45;4.30;;;9.30;99.90;;;;;;4984948;28;20194;-71
2021/05/05 07:37:12;;;;;;;10.80;3.65;;;9.30;99.90;;;;;;4976922;28;20237;-71
2021/05/05 07:43:24;;;;;;;11.07;4.82;;;9.30;99.90;;;;;;4975053;28;20217;-71
2021/05/05 07:45:56;;;;;;;7.20;3.17;;;9.30;99.90;;;;;;4980143;28;20217;-72
2021/05/05 07:48:27;;;;;;;5.35;2.10;;;9.50;99.90;;;;;;4978648;28;20205;-71
2021/05/05 07:50:54;;;;;;;12.95;3.85;;;9.70;99.90;;;;;;4978547;28;20249;-71
2021/05/05 07:53:21;;;;;;;11.27;3.88;;;9.80;99.90;;;;;;4983149;28;20300;-70
2021/05/05 07:55:48;;;;;;;10.55;3.00;;;9.70;99.90;;;;;;4969083;28;20227;-70
2021/05/05 07:58:15;;;;;;;6.72;3.05;;;9.60;99.90;;;;;;4968662;28;20209;-72
2021/05/05 08:00:42;;;;;;;11.60;3.88;;;9.50;99.90;;;;;;4973141;28;20203;-71
2021/05/05 08:03:10;;;;;;;10.40;3.08;;;9.80;99.90;;;;;;4975951;28;20567;-70
2021/05/05 08:05:36;;;;;;;7.93;3.00;;;9.70;99.90;;;;;;4980199;28;20236;-70
2021/05/05 08:08:04;;;;;;;15.80;4.60;;;9.70;99.90;;;;;;4987773;28;20256;-70
2021/05/05 08:10:30;;;;;;;10.20;3.38;;;9.70;99.90;;;;;;4970842;28;20243;-69
2021/05/05 08:12:57;;;;;;;10.88;4.57;;;9.80;99.90;;;;;;4983860;28;20393;-70
2021/05/05 08:15:27;;;;;;;8.07;3.35;;;9.60;99.90;;;;;;4988816;28;20285;-69
2021/05/05 08:17:54;;;;;;;10.00;3.08;;;9.70;99.90;;;;;;4980445;28;20191;-69
2021/05/05 08:20:21;;;;;;;9.77;3.00;;;9.70;99.90;;;;;;4980929;28;20236;-69
2021/05/05 08:22:48;;;;;;;7.75;3.55;;;9.50;99.90;;;;;;4976913;28;20263;-69
2021/05/05 08:25:14;;;;;;;11.93;3.42;;;9.50;99.90;;;;;;4976885;28;20303;-69
2021/05/05 08:27:43;;;;;;;8.90;3.38;;;9.60;99.90;;;;;;4979928;28;20314;-70
2021/05/05 08:30:11;;;;;;;10.10;3.50;;;9.50;99.90;;;;;;4978538;28;20198;-69
2021/05/05 08:32:39;;;;;;;9.15;3.30;;;9.60;99.90;;;;;;4987346;28;20296;-69
2021/05/05 08:35:06;;;;;;;6.88;3.55;;;9.70;99.90;;;;;;4976439;28;20190;-69
2021/05/05 08:37:33;;;;;;;15.40;3.08;;;9.90;99.90;;;;;;4981850;28;20317;-69
2021/05/05 08:40:00;;;;;;;11.32;3.15;;;10.20;99.90;;;;;;4976254;28;20190;-69
2021/05/05 08:42:27;;;;;;;7.72;3.25;;;10.60;99.90;;;;;;4988390;28;20350;-69
2021/05/05 08:44:55;;;;;;;6.10;2.50;;;10.90;99.90;;;;;;4983773;28;21358;-70
2021/05/05 08:47:21;;;;;;;10.68;3.05;;;10.90;99.90;;;;;;4983307;28;20269;-70
2021/05/05 08:49:49;;;;;;;5.75;3.05;;;10.80;99.90;;;;;;4982217;28;20270;-70
2021/05/05 08:52:16;;;;;;;11.40;2.38;;;11.00;99.90;;;;;;4987656;28;20210;-69
2021/05/05 08:54:42;;;;;;;10.55;3.20;;;11.70;99.90;;;;;;4981584;28;20313;-70
2021/05/05 08:57:09;;;;;;;7.88;2.35;;;12.10;98.90;;;;;;4975962;28;20218;-70
2021/05/05 08:59:38;;;;;;;8.77;3.80;;;11.50;98.20;;;;;;4981901;28;20306;-70
2021/05/05 09:02:05;;;;;;;7.38;2.78;;;11.20;99.00;;;;;;4976882;28;20202;-69
2021/05/05 09:04:32;;;;;;;7.28;3.20;;;11.00;99.80;;;;;;4977503;28;20207;-70
2021/05/05 09:07:01;;;;;;;10.60;3.30;;;11.30;99.90;;;;;;4981127;28;20210;-70
2021/05/05 09:09:37;;;;;;;6.47;2.15;;;11.10;99.80;;;;;;4985988;28;20349;-69
2021/05/05 09:12:19;;;;;;;6.03;2.65;;;10.50;99.90;;;;;;4983414;28;20217;-69
2021/05/05 09:14:53;;;;;;;7.72;2.58;;;10.40;99.90;;;;;;4987202;28;20297;-68
2021/05/05 09:17:21;;;;;;;12.10;3.03;;;10.10;99.90;;;;;;4982703;28;20196;-69
2021/05/05 09:19:48;;;;;;;22.33;3.67;;;10.50;99.90;;;;;;4986769;28;20218;-69
2021/05/05 09:22:37;;;;;;;5.47;2.13;;;10.90;99.90;;;;;;4984682;28;20304;-68
2021/05/05 09:25:05;;;;;;;6.03;3.60;;;11.20;99.90;;;;;;4976825;28;20266;-69
2021/05/05 09:27:34;;;;;;;5.75;3.00;;;11.20;99.90;;;;;;4981014;28;20262;-69
2021/05/05 09:30:02;;;;;;;6.78;2.67;;;11.50;99.90;;;;;;4983152;28;20213;-70
2021/05/05 09:32:29;;;;;;;13.13;3.00;;;11.40;99.90;;;;;;4982034;28;20230;-70
2021/05/05 09:35:00;;;;;;;8.50;2.65;;;11.50;99.90;;;;;;4983665;28;20191;-70
2021/05/05 09:37:26;;;;;;;8.38;2.40;;;11.00;99.90;;;;;;4987165;28;20195;-69
2021/05/05 09:40:04;;;;;;;9.95;2.70;;;10.80;99.90;;;;;;4981729;28;20296;-69
2021/05/05 09:42:33;;;;;;;6.22;2.90;;;10.20;99.90;;;;;;4978034;28;20205;-69
2021/05/05 09:45:02;;;;;;;8.30;2.95;;;10.40;99.90;;;;;;4984948;28;20207;-70
2021/05/05 09:47:46;;;;;;;6.60;3.50;;;10.40;99.90;;;;;;4981592;28;20204;-69
2021/05/05 09:50:26;;;;;;;6.70;3.10;;;10.60;99.90;;;;;;4982369;28;20193;-70
2021/05/05 09:53:14;;;;;;;9.35;2.85;;;10.70;99.90;;;;;;4985968;28;20205;-70
2021/05/05 09:55:42;;;;;;;4.47;2.55;;;11.10;99.90;;;;;;4958720;28;20237;-69
2021/05/05 09:58:26;;;;;;;7.50;3.05;;;11.10;99.90;;;;;;4980379;28;20186;-69
2021/05/05 10:01:10;;;;;;;10.45;2.70;;;10.90;99.90;;;;;;4980703;28;20183;-71
2021/05/05 10:03:37;;;;;;;7.57;3.15;;;10.20;99.90;;;;;;4980169;28;20191;-72
2021/05/05 10:06:28;;;;;;;5.93;2.05;;;9.90;99.90;;;;;;4980005;28;20221;-72
2021/05/05 10:08:57;;;;;;;10.27;2.33;;;9.60;99.90;;;;;;4981405;28;20194;-72
2021/05/05 10:11:27;;;;;;;6.63;2.70;;;9.50;99.90;;;;;;4983052;28;20303;-73
2021/05/05 10:13:56;;;;;;;5.80;2.33;;;9.70;99.90;;;;;;4975971;28;20198;-71
2021/05/05 10:16:24;;;;;;;7.85;2.35;;;10.10;99.90;;;;;;4979068;28;20342;-72
2021/05/05 10:18:52;;;;;;;5.10;1.83;;;10.30;99.90;;;;;;4975724;28;20201;-71
2021/05/05 10:21:22;;;;;;;4.57;1.38;;;10.30;99.90;;;;;;4984749;28;20359;-72
2021/05/05 10:23:49;;;;;;;2.72;1.40;;;10.30;99.90;;;;;;4979138;28;20236;-72
2021/05/05 10:26:20;;;;;;;6.85;1.48;;;10.10;99.90;;;;;;4980597;28;20285;-72
2021/05/05 10:28:48;;;;;;;3.75;1.98;;;10.30;99.90;;;;;;4973196;28;20187;-72
2021/05/05 10:31:19;;;;;;;2.03;1.00;;;10.80;99.90;;;;;;4976175;28;20266;-72
2021/05/05 10:33:50;;;;;;;5.22;2.10;;;11.40;99.90;;;;;;4976622;28;20382;-72
2021/05/05 10:36:34;;;;;;;1.65;1.38;;;11.90;99.90;;;;;;4978082;28;20393;-72
2021/05/05 10:39:06;;;;;;;2.47;1.23;;;11.80;99.90;;;;;;4977251;28;20257;-72
2021/05/05 10:41:35;;;;;;;9.25;1.67;;;11.60;99.90;;;;;;4985213;28;20356;-70
2021/05/05 10:44:03;;;;;;;3.08;1.77;;;11.70;99.90;;;;;;4976956;28;20262;-71
2021/05/05 10:46:31;;;;;;;9.23;3.67;;;11.90;99.90;;;;;;4984539;28;20325;-71
2021/05/05 10:49:07;;;;;;;6.40;1.70;;;11.60;99.90;;;;;;4961993;28;658429;-71
2021/05/05 10:51:59;;;;;;;6.05;1.90;;;11.20;99.90;;;;;;4984713;28;20507;-71
2021/05/05 10:54:51;;;;;;;3.75;1.58;;;10.90;99.90;;;;;;4985556;28;20213;-71
2021/05/05 10:57:19;;;;;;;1.85;1.40;;;10.80;99.90;;;;;;4978305;28;20284;-71
2021/05/05 11:00:07;;;;;;;2.72;1.20;;;10.40;99.90;;;;;;4987116;28;20221;-73
2021/05/05 11:02:58;;;;;;;3.63;1.40;;;9.90;99.90;;;;;;4983898;28;20193;-72
2021/05/05 11:05:36;;;;;;;3.58;2.03;;;9.70;99.90;;;;;;4974600;28;20210;-71
2021/05/05 11:08:05;;;;;;;4.25;2.00;;;9.30;99.90;;;;;;4978382;28;20365;-73
2021/05/05 11:10:52;;;;;;;2.85;1.83;;;9.20;99.90;;;;;;4975729;28;20224;-72
2021/05/05 11:13:43;;;;;;;5.53;1.90;;;9.00;99.90;;;;;;4971490;28;20218;-69
2021/05/05 11:16:11;;;;;;;2.83;1.58;;;8.90;99.90;;;;;;4975157;28;20225;-70
2021/05/05 11:18:48;;;;;;;6.70;1.60;;;8.70;99.90;;;;;;4983787;28;20265;-69
2021/05/05 11:21:42;;;;;;;1.63;1.38;;;8.80;99.90;;;;;;4960518;28;20214;-69
2021/05/05 11:24:29;;;;;;;1.77;1.60;;;8.90;99.90;;;;;;4973561;28;20256;-70
2021/05/05 11:26:57;;;;;;;2.63;1.30;;;9.10;99.90;;;;;;4974896;28;20268;-71
2021/05/05 11:29:35;;;;;;;3.22;1.40;;;9.20;99.90;;;;;;4971747;28;20220;-70
2021/05/05 11:32:08;;;;;;;1.60;1.08;;;9.10;99.90;;;;;;4978524;28;20274;-69
2021/05/05 11:34:36;;;;;;;2.47;1.58;;;8.90;99.90;;;;;;4977405;28;20265;-71
2021/05/05 11:37:08;;;;;;;1.33;1.08;;;8.60;99.90;;;;;;4982256;28;20255;-71
2021/05/05 11:39:39;;;;;;;2.80;1.60;;;8.60;99.90;;;;;;4976794;28;20253;-70
2021/05/05 11:42:09;;;;;;;6.72;1.77;;;8.90;99.90;;;;;;4987497;28;20237;-69
2021/05/05 11:44:45;;;;;;;1.67;1.23;;;9.00;99.90;;;;;;4986281;28;20267;-70
2021/05/05 11:47:14;;;;;;;3.67;1.42;;;9.10;99.90;;;;;;4986856;28;20247;-71
2021/05/05 11:49:42;;;;;;;3.28;1.70;;;9.20;99.90;;;;;;4988567;28;20268;-70
2021/05/05 11:52:27;;;;;;;8.70;2.35;;;9.30;99.90;;;;;;4989155;28;20434;-72
2021/05/05 11:54:56;;;;;;;2.55;1.13;;;9.50;99.90;;;;;;4985556;28;20200;-70
2021/05/05 11:57:24;;;;;;;3.35;2.10;;;9.90;99.90;;;;;;4985477;28;20264;-71
2021/05/05 11:59:51;;;;;;;4.40;1.73;;;10.10;99.90;;;;;;4986526;28;20202;-71
2021/05/05 12:02:23;;;;;;;2.35;1.35;;;10.40;99.90;;;;;;4986209;28;20254;-72
2021/05/05 12:04:51;;;;;;;4.85;1.58;;;10.40;99.90;;;;;;4973270;28;20195;-70
2021/05/05 12:07:19;;;;;;;3.42;1.20;;;10.50;99.90;;;;;;4986277;28;20191;-70
2021/05/05 12:09:46;;;;;;;2.75;1.50;;;10.60;99.90;;;;;;4982188;28;20261;-72
2021/05/05 12:12:26;;;;;;;3.35;1.20;;;10.90;99.90;;;;;;4985815;28;20440;-69
2021/05/05 12:14:54;;;;;;;2.20;1.30;;;11.10;99.90;;;;;;4987327;28;20203;-69
2021/05/05 12:17:29;;;;;;;4.15;1.70;;;10.70;99.90;;;;;;4983758;28;20261;-68
2021/05/05 12:20:02;;;;;;;3.47;1.80;;;10.20;99.90;;;;;;4986708;28;20201;-71
2021/05/05 12:22:30;;;;;;;5.15;2.60;;;10.00;99.90;;;;;;4988553;28;20216;-69
2021/05/05 12:25:12;;;;;;;2.97;1.60;;;10.40;99.90;;;;;;4983227;28;20190;-70
2021/05/05 12:27:56;;;;;;;5.03;2.58;;;10.70;99.90;;;;;;4985611;28;20191;-72
2021/05/05 12:30:23;;;;;;;3.25;1.83;;;11.10;99.90;;;;;;4981257;28;20200;-71
2021/05/05 12:32:52;;;;;;;4.93;1.98;;;11.40;99.90;;;;;;4985033;28;20237;-73
2021/05/05 12:35:23;;;;;;;5.45;2.10;;;11.60;99.90;;;;;;4984902;28;20238;-71
2021/05/05 12:37:50;;;;;;;4.88;2.45;;;11.90;99.90;;;;;;4987924;28;20341;-71
2021/05/05 12:40:18;;;;;;;5.40;2.40;;;11.70;99.90;;;;;;4987083;28;20299;-72
2021/05/05 12:42:45;;;;;;;2.53;2.05;;;11.40;99.90;;;;;;4985403;28;20205;-73
2021/05/05 12:45:13;;;;;;;4.13;1.90;;;10.90;99.90;;;;;;4987291;28;20296;-74
2021/05/05 12:47:41;;;;;;;3.25;1.83;;;10.20;99.90;;;;;;4981381;28;20273;-71
2021/05/05 12:50:14;;;;;;;4.78;1.60;;;10.10;99.90;;;;;;4985163;28;20186;-72
2021/05/05 12:52:42;;;;;;;6.40;2.28;;;9.90;99.90;;;;;;4982453;28;20215;-70
2021/05/05 12:55:27;;;;;;;3.83;2.20;;;9.80;99.90;;;;;;4983476;28;20218;-71
2021/05/05 12:58:01;;;;;;;11.48;3.45;;;9.80;99.90;;;;;;4986785;28;20270;-70
2021/05/05 13:00:29;;;;;;;7.53;2.30;;;9.60;99.90;;;;;;4991613;28;20209;-71
2021/05/05 13:03:07;;;;;;;7.40;2.05;;;9.30;99.90;;;;;;4980299;28;20191;-72
2021/05/05 13:05:55;;;;;;;5.85;1.95;;;9.10;99.90;;;;;;4988272;28;20262;-71
2021/05/05 13:08:31;;;;;;;7.80;2.03;;;9.10;99.90;;;;;;4987562;28;20217;-70
2021/05/05 13:11:00;;;;;;;8.93;2.72;;;9.30;99.90;;;;;;4979185;28;20258;-71
2021/05/05 13:13:43;;;;;;;10.77;2.47;;;9.60;99.90;;;;;;4984907;28;20449;-71
2021/05/05 13:16:22;;;;;;;8.05;3.00;;;10.20;99.90;;;;;;4983416;28;20213;-71
2021/05/05 13:19:19;;;;;;;5.68;2.35;;;10.40;99.90;;;;;;4969153;28;20805;-70
2021/05/05 13:30:28;;;;;;;13.95;3.50;;;11.70;99.90;;;;;;4962216;28;20265;-71